KCAE/CAE METAR and TAF weather

Enter ICAO airport designator
Station Type Date Time Source
KCAE METAR 2018/04/27 00:56 UTC NOAA

KCAE 270056Z 34006KT 10SM -RA SCT055 OVC100 19/13 A2984 RMK AO2 RAB56 SLP101 P0000 T01890128


Station Type Date Time Source
KCAE Decoded METAR 2018/04/27 00:56 UTC NOAA

COLUMBIA METROPOLITAN AIRPORT , SC, United States (KCAE) 33-57N 081-07W 73M
Apr 26, 2018 - 08:56 PM EDT / 2018.04.27 0056 UTC
Wind: from the NNW (340 degrees) at 7 MPH (6 KT):0
Visibility: 10 mile(s):0
Sky conditions: overcast
Weather: light rain
Precipitation last hour: A trace
Temperature: 66.0 F (18.9 C)
Dew Point: 55.0 F (12.8 C)
Relative Humidity: 67%
Pressure (altimeter): 29.84 in. Hg (1010 hPa)
ob: KCAE 270056Z 34006KT 10SM -RA SCT055 OVC100 19/13 A2984 RMK AO2 RAB56 SLP101 P0000 T01890128
cycle: 1

Station Type Date Time Source
KCAE TAF 2018/04/26 21:03 UTC NOAA

TAF
AMD KCAE 262101Z 2621/2718 20007KT P6SM SCT050 BKN150
FM262300 21007KT 6SM -SHRA SCT035 BKN050
FM270700 23005KT 4SM BR OVC020
FM271400 26007KT P6SM BKN035


Example: see airport list